Time;durP1;ratioP1;P1;durP2;ratioP2;P2;SDS_P1;SDS_P2;PMS_P1;PMS_P2;Temp;Humidity;BMP_temperature;BMP_pressure;BME280_temperature;BME280_humidity;BME280_pressure;Samples;Min_cycle;Max_cycle;Signal;HPM_P1;HPM_P2
2021/05/22 00:00:22;;;;;;;6.72;2.10;;;11.50;74.20;;;;;;4977996;28;20035;-81
2021/05/22 00:02:48;;;;;;;10.50;1.85;;;11.50;74.30;;;;;;4977298;28;20026;-81
2021/05/22 00:05:14;;;;;;;9.88;2.15;;;11.40;74.60;;;;;;4977899;28;20033;-81
2021/05/22 00:07:39;;;;;;;6.47;1.70;;;11.40;74.80;;;;;;4978509;28;20035;-80
2021/05/22 00:10:10;;;;;;;7.10;1.92;;;11.40;74.80;;;;;;4980761;28;20034;-82
2021/05/22 00:12:36;;;;;;;4.55;1.20;;;11.40;74.90;;;;;;4988011;28;20027;-81
2021/05/22 00:15:03;;;;;;;7.45;1.73;;;11.40;75.10;;;;;;4978590;28;20034;-82
2021/05/22 00:17:29;;;;;;;6.35;1.60;;;11.40;74.70;;;;;;4980636;28;20061;-82
2021/05/22 00:19:54;;;;;;;7.60;1.50;;;11.40;75.30;;;;;;4998433;28;20058;-82
2021/05/22 00:22:20;;;;;;;7.50;1.98;;;11.40;75.00;;;;;;4996845;28;20090;-80
2021/05/22 00:24:46;;;;;;;8.55;1.80;;;11.40;74.60;;;;;;5000296;28;20066;-81
2021/05/22 00:27:11;;;;;;;8.02;1.63;;;11.40;75.00;;;;;;4999056;28;20085;-82
2021/05/22 00:29:37;;;;;;;7.50;1.38;;;11.40;74.60;;;;;;4983652;28;20031;-82
2021/05/22 00:32:03;;;;;;;6.78;1.70;;;11.30;74.80;;;;;;4978884;28;20038;-82
2021/05/22 00:34:28;;;;;;;6.55;1.73;;;11.40;75.00;;;;;;4988543;28;20010;-80
2021/05/22 00:36:54;;;;;;;7.25;1.80;;;11.40;73.80;;;;;;4994139;28;20080;-81
2021/05/22 00:39:19;;;;;;;9.13;2.50;;;11.40;73.60;;;;;;4995652;28;20517;-81
2021/05/22 00:41:45;;;;;;;8.60;1.73;;;11.50;73.60;;;;;;4976451;28;20019;-80
2021/05/22 00:44:11;;;;;;;6.28;1.58;;;11.40;73.30;;;;;;4977137;28;20027;-82
2021/05/22 00:46:36;;;;;;;11.65;2.55;;;11.40;74.10;;;;;;4978493;28;20033;-83
2021/05/22 00:49:02;;;;;;;6.18;1.45;;;11.40;73.10;;;;;;4986326;28;20042;-81
2021/05/22 00:51:27;;;;;;;11.80;1.73;;;11.40;73.10;;;;;;4976840;28;20415;-81
2021/05/22 00:53:53;;;;;;;9.52;2.50;;;11.40;73.20;;;;;;4976752;28;20031;-81
2021/05/22 00:56:19;;;;;;;9.48;1.98;;;11.40;72.90;;;;;;4976936;28;20469;-82
2021/05/22 00:58:44;;;;;;;7.20;1.50;;;11.40;73.30;;;;;;4976411;28;20030;-80
2021/05/22 01:01:12;;;;;;;7.82;1.73;;;11.50;72.90;;;;;;4976727;28;20022;-80
2021/05/22 01:03:44;;;;;;;9.73;1.35;;;11.40;73.00;;;;;;4976694;28;20110;-80
2021/05/22 01:06:17;;;;;;;3.92;1.00;;;11.40;73.90;;;;;;4979699;28;20058;-81
2021/05/22 01:08:52;;;;;;;8.02;1.73;;;11.40;74.40;;;;;;4997308;28;20065;-80
2021/05/22 01:11:44;;;;;;;9.18;1.75;;;11.40;72.90;;;;;;4980354;28;20106;-81
2021/05/22 01:14:32;;;;;;;10.00;1.45;;;11.40;74.30;;;;;;4981637;28;20042;-81
2021/05/22 01:16:59;;;;;;;9.55;1.90;;;11.40;72.70;;;;;;4985426;28;20031;-81
2021/05/22 01:19:31;;;;;;;4.00;1.27;;;11.40;72.30;;;;;;4993539;28;20129;-81
2021/05/22 01:21:57;;;;;;;8.63;2.10;;;11.40;73.70;;;;;;4999856;28;20064;-82
2021/05/22 01:24:24;;;;;;;10.60;1.85;;;11.40;73.00;;;;;;4999929;28;20030;-81
2021/05/22 01:26:51;;;;;;;11.55;1.50;;;11.40;71.90;;;;;;4983517;28;20030;-81
2021/05/22 01:29:17;;;;;;;6.63;1.73;;;11.40;73.10;;;;;;4981753;28;20209;-82
2021/05/22 01:31:44;;;;;;;14.65;1.92;;;11.40;73.80;;;;;;4981086;28;20037;-81
2021/05/22 01:34:10;;;;;;;7.60;1.63;;;11.40;72.90;;;;;;4981461;28;20034;-81
2021/05/22 01:36:35;;;;;;;9.00;1.65;;;11.40;73.60;;;;;;4981218;28;20457;-81
2021/05/22 01:39:01;;;;;;;5.15;1.30;;;11.40;71.80;;;;;;4981429;28;20033;-83
2021/05/22 01:41:27;;;;;;;9.70;1.88;;;11.40;72.70;;;;;;4980864;28;20026;-83
2021/05/22 01:43:56;;;;;;;5.82;1.73;;;11.40;72.20;;;;;;4981505;28;20109;-84
2021/05/22 01:46:24;;;;;;;8.70;1.60;;;11.40;73.30;;;;;;4981640;28;20034;-84
2021/05/22 01:48:51;;;;;;;7.32;1.83;;;11.40;73.30;;;;;;4980974;28;20030;-83
2021/05/22 01:51:20;;;;;;;8.88;1.67;;;11.30;73.00;;;;;;4981755;28;20027;-84
2021/05/22 01:53:47;;;;;;;7.97;1.75;;;11.30;72.10;;;;;;4981003;28;20458;-80
2021/05/22 01:56:18;;;;;;;4.93;1.67;;;11.30;72.60;;;;;;4980973;28;20031;-83
2021/05/22 01:58:45;;;;;;;13.43;1.95;;;11.40;73.60;;;;;;4980556;28;20120;-82
2021/05/22 02:01:12;;;;;;;8.05;1.90;;;11.30;73.40;;;;;;4990788;28;20033;-82
2021/05/22 02:03:48;;;;;;;8.20;1.30;;;11.30;72.40;;;;;;4983240;28;20053;-83
2021/05/22 02:06:26;;;;;;;11.55;1.75;;;11.30;74.20;;;;;;4981296;28;20061;-82
2021/05/22 02:08:57;;;;;;;8.65;1.75;;;11.30;72.90;;;;;;4980676;28;20060;-83
2021/05/22 02:11:26;;;;;;;9.10;1.80;;;11.30;73.60;;;;;;4981307;28;20073;-83
2021/05/22 02:13:53;;;;;;;9.48;1.65;;;11.30;74.20;;;;;;4980884;28;20045;-81
2021/05/22 02:16:25;;;;;;;9.52;1.75;;;11.30;74.20;;;;;;4983316;28;20019;-79
2021/05/22 02:18:53;;;;;;;8.30;2.00;;;11.30;73.60;;;;;;5001783;28;20048;-82
2021/05/22 02:21:22;;;;;;;5.43;1.50;;;11.30;74.20;;;;;;5001494;28;20010;-83
2021/05/22 02:23:48;;;;;;;6.18;1.45;;;11.20;74.10;;;;;;5002172;28;20041;-82
2021/05/22 02:26:17;;;;;;;7.25;1.65;;;11.30;74.70;;;;;;5015319;28;20050;-83
2021/05/22 02:28:43;;;;;;;7.10;1.60;;;11.30;73.70;;;;;;4982271;28;20042;-82
2021/05/22 02:31:10;;;;;;;7.10;1.60;;;11.30;74.00;;;;;;4980796;28;20344;-83
2021/05/22 02:33:39;;;;;;;8.82;1.63;;;11.30;73.40;;;;;;4981873;28;20026;-81
2021/05/22 02:36:05;;;;;;;11.38;1.65;;;11.30;74.40;;;;;;4982358;28;20053;-80
2021/05/22 02:38:49;;;;;;;8.63;1.65;;;11.20;74.10;;;;;;4981668;28;20041;-77
2021/05/22 02:41:16;;;;;;;6.65;1.33;;;11.20;74.50;;;;;;4983708;28;20026;-79
2021/05/22 02:43:50;;;;;;;12.52;2.13;;;11.20;74.20;;;;;;4979739;28;20220;-78
2021/05/22 02:46:18;;;;;;;7.15;1.40;;;11.20;75.00;;;;;;4978259;28;20031;-79
2021/05/22 02:48:45;;;;;;;9.05;1.92;;;11.10;74.90;;;;;;4978997;28;20034;-80
2021/05/22 02:51:13;;;;;;;8.23;1.65;;;11.20;75.20;;;;;;4978395;28;20026;-79
2021/05/22 02:53:39;;;;;;;7.00;1.60;;;11.20;75.60;;;;;;4978970;28;20018;-80
2021/05/22 02:56:09;;;;;;;6.25;1.60;;;11.20;75.20;;;;;;4996197;28;20026;-80
2021/05/22 02:58:36;;;;;;;6.68;1.27;;;11.20;75.10;;;;;;4978255;28;20120;-79
2021/05/22 03:01:05;;;;;;;5.70;1.27;;;11.10;75.60;;;;;;4978027;28;20026;-79
2021/05/22 03:03:32;;;;;;;7.43;1.17;;;11.10;75.40;;;;;;4978232;28;20033;-79
2021/05/22 03:06:03;;;;;;;10.52;1.60;;;11.10;75.20;;;;;;4977223;28;20177;-81
2021/05/22 03:08:29;;;;;;;5.72;1.15;;;11.20;75.90;;;;;;4978818;28;20135;-80
2021/05/22 03:10:56;;;;;;;7.00;1.48;;;11.20;75.60;;;;;;4979489;28;20401;-80
2021/05/22 03:13:22;;;;;;;5.30;1.08;;;11.20;75.50;;;;;;4989670;28;20038;-80
2021/05/22 03:15:47;;;;;;;5.47;1.30;;;11.20;76.90;;;;;;4997250;28;20022;-80
2021/05/22 03:18:13;;;;;;;9.13;1.17;;;11.10;76.10;;;;;;4987533;28;20026;-81
2021/05/22 03:20:39;;;;;;;4.40;1.15;;;11.10;76.10;;;;;;4979113;28;20036;-82
2021/05/22 03:23:05;;;;;;;5.55;1.30;;;11.10;76.40;;;;;;4978503;28;20026;-82
2021/05/22 03:25:30;;;;;;;5.60;1.13;;;11.10;76.10;;;;;;4981252;28;20033;-83
2021/05/22 03:27:59;;;;;;;9.32;1.38;;;11.10;76.00;;;;;;4979800;28;20034;-80
2021/05/22 03:30:25;;;;;;;4.93;1.30;;;11.10;75.80;;;;;;4979663;28;20038;-80
2021/05/22 03:32:51;;;;;;;5.10;1.10;;;11.10;75.60;;;;;;4979019;28;20023;-80
2021/05/22 03:35:17;;;;;;;4.22;1.10;;;11.10;74.90;;;;;;4978557;28;20462;-81
2021/05/22 03:37:43;;;;;;;5.55;1.05;;;11.20;75.30;;;;;;4977878;28;20058;-82
2021/05/22 03:40:09;;;;;;;8.75;1.73;;;11.20;74.90;;;;;;4977978;28;20443;-79
2021/05/22 03:42:35;;;;;;;5.05;1.65;;;11.20;74.80;;;;;;4995408;28;20044;-78
2021/05/22 03:45:00;;;;;;;2.33;0.80;;;11.20;74.80;;;;;;4978085;28;20105;-80
2021/05/22 03:47:26;;;;;;;5.13;0.82;;;11.20;75.40;;;;;;4981032;28;20033;-80
2021/05/22 03:49:51;;;;;;;10.55;1.63;;;11.20;75.70;;;;;;4986113;28;20030;-81
2021/05/22 03:52:17;;;;;;;12.43;1.35;;;11.30;74.90;;;;;;4979824;28;20046;-79
2021/05/22 03:54:45;;;;;;;5.40;1.20;;;11.20;75.20;;;;;;4977659;28;20062;-79
2021/05/22 03:57:10;;;;;;;5.63;0.95;;;11.30;75.60;;;;;;4977858;28;20080;-79
2021/05/22 03:59:36;;;;;;;8.52;1.30;;;11.20;76.00;;;;;;4976864;28;20125;-81
2021/05/22 04:02:02;;;;;;;5.97;1.30;;;11.30;75.50;;;;;;4976940;28;20045;-81
2021/05/22 04:04:27;;;;;;;5.15;1.00;;;11.30;75.90;;;;;;4976922;28;20484;-81
2021/05/22 04:06:53;;;;;;;7.15;1.63;;;11.30;75.40;;;;;;4977390;28;20066;-80
2021/05/22 04:09:18;;;;;;;7.50;1.17;;;11.30;75.30;;;;;;4976829;28;20035;-79
2021/05/22 04:11:44;;;;;;;5.78;1.00;;;11.30;76.00;;;;;;4977839;28;20026;-81
2021/05/22 04:14:09;;;;;;;4.28;1.30;;;11.30;75.60;;;;;;4980169;28;20022;-82
2021/05/22 04:16:35;;;;;;;4.10;0.90;;;11.30;76.10;;;;;;5000215;28;20026;-82
2021/05/22 04:19:02;;;;;;;4.45;0.80;;;11.30;75.50;;;;;;4999510;28;20086;-83
2021/05/22 04:21:28;;;;;;;9.27;1.23;;;11.30;75.20;;;;;;5000858;28;20058;-83
2021/05/22 04:23:53;;;;;;;9.15;1.80;;;11.30;75.60;;;;;;4998786;28;20013;-81
2021/05/22 04:26:19;;;;;;;6.65;1.40;;;11.30;76.00;;;;;;4982089;28;20037;-80
2021/05/22 04:28:45;;;;;;;7.75;1.45;;;11.30;75.80;;;;;;4982142;28;20030;-81
2021/05/22 04:31:10;;;;;;;8.48;1.70;;;11.30;75.40;;;;;;4977465;28;20177;-82
2021/05/22 04:33:36;;;;;;;8.75;1.45;;;11.30;75.90;;;;;;4976907;28;20027;-82
2021/05/22 04:36:02;;;;;;;6.78;1.40;;;11.30;76.50;;;;;;4977361;28;20351;-81
2021/05/22 04:38:30;;;;;;;10.90;1.77;;;11.30;76.80;;;;;;4977846;28;20041;-80
2021/05/22 04:40:56;;;;;;;5.68;1.02;;;11.30;76.90;;;;;;4981366;28;20113;-79
2021/05/22 04:43:21;;;;;;;7.68;1.52;;;11.20;77.00;;;;;;4983714;28;20061;-82
2021/05/22 04:45:47;;;;;;;7.00;1.42;;;11.20;77.30;;;;;;5001281;28;20018;-81
2021/05/22 04:48:13;;;;;;;5.68;1.50;;;11.20;77.60;;;;;;4991649;28;20073;-82
2021/05/22 04:50:38;;;;;;;9.68;1.63;;;11.10;77.70;;;;;;4983846;28;20026;-83
2021/05/22 04:53:04;;;;;;;8.73;1.83;;;11.10;78.70;;;;;;4981871;28;20456;-81
2021/05/22 04:55:30;;;;;;;12.00;2.08;;;11.10;79.90;;;;;;4981914;28;20045;-82
2021/05/22 04:57:56;;;;;;;8.73;1.85;;;11.00;80.10;;;;;;4983954;28;20351;-82
2021/05/22 05:00:22;;;;;;;5.78;1.20;;;11.00;80.40;;;;;;4982950;28;20040;-81
2021/05/22 05:02:48;;;;;;;9.70;2.20;;;10.90;80.10;;;;;;4986040;28;20046;-81
2021/05/22 05:05:14;;;;;;;9.48;2.33;;;10.90;81.70;;;;;;4986938;28;20027;-81
2021/05/22 05:07:41;;;;;;;8.15;2.17;;;10.80;81.10;;;;;;4990342;28;20036;-82
2021/05/22 05:10:08;;;;;;;7.10;1.75;;;10.80;82.40;;;;;;4994553;28;20026;-84
2021/05/22 05:12:34;;;;;;;7.25;1.63;;;10.70;82.20;;;;;;4983889;28;20034;-82
2021/05/22 05:15:00;;;;;;;11.00;1.65;;;10.80;82.30;;;;;;4982603;28;20023;-82
2021/05/22 05:17:25;;;;;;;8.05;1.85;;;10.70;82.10;;;;;;4981134;28;20057;-81
2021/05/22 05:19:51;;;;;;;7.55;2.35;;;10.70;82.30;;;;;;4981152;28;20030;-79
2021/05/22 05:22:16;;;;;;;9.60;2.67;;;10.70;83.20;;;;;;4981399;28;20130;-81
2021/05/22 05:24:42;;;;;;;7.88;2.35;;;10.70;83.50;;;;;;4982855;28;20030;-82
2021/05/22 05:27:07;;;;;;;6.28;1.42;;;10.70;83.30;;;;;;4980853;28;20033;-81
2021/05/22 05:29:35;;;;;;;10.82;1.75;;;10.60;83.60;;;;;;4983372;28;20022;-80
2021/05/22 05:32:00;;;;;;;12.73;2.08;;;10.60;83.90;;;;;;4981765;28;20023;-81
2021/05/22 05:34:26;;;;;;;11.55;2.03;;;10.60;84.50;;;;;;4981868;28;20022;-80
2021/05/22 05:36:51;;;;;;;16.98;2.95;;;10.60;85.00;;;;;;4980403;28;20054;-80
2021/05/22 05:39:17;;;;;;;7.88;1.95;;;10.60;86.00;;;;;;4981335;28;20038;-80
2021/05/22 05:41:43;;;;;;;13.63;2.50;;;10.60;85.10;;;;;;4984057;28;20378;-79
2021/05/22 05:44:09;;;;;;;11.10;2.30;;;10.60;86.20;;;;;;4979291;28;20026;-79
2021/05/22 05:46:34;;;;;;;11.73;1.85;;;10.60;87.00;;;;;;4980015;28;20022;-80
2021/05/22 05:49:02;;;;;;;6.72;1.92;;;10.50;87.50;;;;;;4981308;28;20114;-83
2021/05/22 05:51:28;;;;;;;11.52;2.88;;;10.50;86.40;;;;;;4980498;28;20379;-84
2021/05/22 05:53:54;;;;;;;9.80;1.90;;;10.50;86.70;;;;;;4980233;28;20459;-80
2021/05/22 05:56:19;;;;;;;11.80;2.28;;;10.60;86.00;;;;;;4979088;28;20049;-80
2021/05/22 05:58:45;;;;;;;8.70;1.90;;;10.50;87.20;;;;;;4978806;28;20395;-81
2021/05/22 06:01:13;;;;;;;6.55;1.70;;;10.50;88.00;;;;;;4979179;28;20027;-79
2021/05/22 06:03:40;;;;;;;8.45;1.58;;;10.50;88.80;;;;;;4979319;28;20026;-80
2021/05/22 06:06:05;;;;;;;8.48;1.30;;;10.40;88.00;;;;;;4978874;28;20508;-79
2021/05/22 06:08:31;;;;;;;10.60;2.25;;;10.40;86.70;;;;;;4980629;28;20027;-80
2021/05/22 06:10:59;;;;;;;18.60;2.30;;;10.40;87.80;;;;;;4986249;28;20030;-81
2021/05/22 06:13:27;;;;;;;11.98;2.13;;;10.40;89.70;;;;;;4998919;28;20022;-81
2021/05/22 06:16:04;;;;;;;8.10;1.52;;;10.40;88.90;;;;;;4998520;28;20023;-80
2021/05/22 06:18:34;;;;;;;9.00;1.95;;;10.40;88.20;;;;;;4999967;28;20026;-80
2021/05/22 06:21:01;;;;;;;7.82;2.42;;;10.50;89.50;;;;;;5000263;28;20094;-81
2021/05/22 06:23:27;;;;;;;9.45;2.22;;;10.50;88.60;;;;;;4987105;28;20053;-80
2021/05/22 06:25:53;;;;;;;9.23;2.00;;;10.50;88.00;;;;;;4979702;28;20081;-81
2021/05/22 06:28:19;;;;;;;15.43;2.15;;;10.50;88.50;;;;;;4978861;28;20014;-80
2021/05/22 06:30:45;;;;;;;9.00;1.95;;;10.40;88.90;;;;;;4979357;28;20031;-80
2021/05/22 06:33:11;;;;;;;6.95;1.55;;;10.50;88.80;;;;;;4995490;28;20030;-80
2021/05/22 06:35:37;;;;;;;7.28;1.67;;;10.50;88.10;;;;;;4978842;28;20023;-80
2021/05/22 06:38:03;;;;;;;8.82;1.92;;;10.50;89.90;;;;;;4978672;28;20514;-80
2021/05/22 06:40:29;;;;;;;8.25;1.85;;;10.50;88.90;;;;;;4998946;28;20046;-81
2021/05/22 06:42:54;;;;;;;9.85;2.10;;;10.40;89.70;;;;;;4980093;28;20026;-81
2021/05/22 06:45:22;;;;;;;7.53;2.15;;;10.40;89.30;;;;;;4984755;28;20019;-80
2021/05/22 06:47:48;;;;;;;8.98;1.80;;;10.40;90.20;;;;;;4983440;28;20032;-80
2021/05/22 06:50:14;;;;;;;6.57;1.80;;;10.40;90.00;;;;;;4991783;28;20438;-80
2021/05/22 06:52:41;;;;;;;12.70;2.17;;;10.40;89.00;;;;;;4993553;28;20094;-80
2021/05/22 06:55:07;;;;;;;5.38;1.30;;;10.50;90.40;;;;;;4984402;28;20076;-78
2021/05/22 06:57:33;;;;;;;7.88;1.55;;;10.50;90.10;;;;;;4984493;28;20066;-78
2021/05/22 06:59:59;;;;;;;12.32;1.67;;;10.40;89.60;;;;;;4990888;28;20124;-80
2021/05/22 07:02:28;;;;;;;8.45;2.38;;;10.40;89.90;;;;;;4991217;28;20026;-80
2021/05/22 07:04:53;;;;;;;5.53;1.40;;;10.50;90.10;;;;;;4980913;28;20129;-80
2021/05/22 07:07:19;;;;;;;8.45;2.20;;;10.50;89.70;;;;;;4978371;28;20506;-80
2021/05/22 07:09:44;;;;;;;8.48;1.60;;;10.50;89.50;;;;;;4978292;28;20029;-79
2021/05/22 07:12:10;;;;;;;11.48;2.53;;;10.60;89.30;;;;;;4978846;28;20026;-80
2021/05/22 07:14:36;;;;;;;6.28;1.83;;;10.60;90.20;;;;;;4978535;28;20028;-80
2021/05/22 07:17:02;;;;;;;9.18;2.63;;;10.60;90.00;;;;;;4978497;28;20022;-79
2021/05/22 07:19:28;;;;;;;9.23;2.10;;;10.50;89.30;;;;;;4978712;28;20117;-79
2021/05/22 07:21:55;;;;;;;7.30;1.63;;;10.50;90.10;;;;;;4979274;28;20023;-79
2021/05/22 07:24:21;;;;;;;6.80;2.67;;;10.60;89.40;;;;;;4978913;28;20022;-79
2021/05/22 07:26:49;;;;;;;4.80;1.65;;;10.60;89.40;;;;;;4981353;28;20022;-79
2021/05/22 07:29:15;;;;;;;7.30;2.45;;;10.60;90.30;;;;;;4982552;28;20022;-79
2021/05/22 07:31:42;;;;;;;13.32;2.63;;;10.60;90.30;;;;;;4980371;28;20189;-80
2021/05/22 07:34:09;;;;;;;8.52;2.30;;;10.60;91.00;;;;;;4980471;28;20072;-79
2021/05/22 07:36:38;;;;;;;11.95;2.40;;;10.50;90.60;;;;;;4979352;28;20026;-79
2021/05/22 07:39:06;;;;;;;9.15;2.05;;;10.50;90.90;;;;;;4977664;28;20054;-79
2021/05/22 07:41:32;;;;;;;6.95;1.98;;;10.50;90.70;;;;;;4980744;28;20019;-80
2021/05/22 07:43:58;;;;;;;7.35;2.00;;;10.50;91.10;;;;;;4979373;28;20027;-79
2021/05/22 07:46:24;;;;;;;7.82;2.38;;;10.50;90.10;;;;;;4978385;28;20026;-78
2021/05/22 07:48:49;;;;;;;6.50;1.85;;;10.60;90.50;;;;;;4996758;28;20026;-80
2021/05/22 07:51:16;;;;;;;7.80;2.03;;;10.70;90.00;;;;;;4978556;28;20339;-81
2021/05/22 07:53:42;;;;;;;10.35;1.73;;;10.70;90.60;;;;;;4977961;28;20352;-78
2021/05/22 07:56:07;;;;;;;7.82;1.75;;;10.70;90.40;;;;;;4978234;28;20021;-77
2021/05/22 07:58:33;;;;;;;7.00;2.55;;;10.70;90.40;;;;;;4998911;28;20453;-78
2021/05/22 08:00:58;;;;;;;7.05;2.08;;;10.70;90.10;;;;;;4979508;28;20022;-78
2021/05/22 08:03:24;;;;;;;6.00;1.55;;;10.80;90.50;;;;;;4980456;28;20455;-78
2021/05/22 08:05:53;;;;;;;13.55;2.25;;;10.80;90.30;;;;;;4980495;28;20053;-79
2021/05/22 08:08:20;;;;;;;5.85;1.40;;;10.80;90.30;;;;;;4998432;28;20022;-77
2021/05/22 08:10:46;;;;;;;7.70;1.75;;;10.80;90.10;;;;;;5002108;28;20086;-77
2021/05/22 08:13:12;;;;;;;4.50;1.70;;;10.80;90.40;;;;;;4998892;28;20022;-79
2021/05/22 08:15:38;;;;;;;5.18;1.75;;;10.80;90.30;;;;;;4996109;28;20034;-76
2021/05/22 08:18:04;;;;;;;8.90;1.70;;;10.80;89.60;;;;;;5001937;28;20026;-78
2021/05/22 08:20:30;;;;;;;6.50;1.65;;;10.90;90.10;;;;;;4989082;28;20042;-78
2021/05/22 08:22:56;;;;;;;10.48;2.20;;;10.80;91.00;;;;;;5000503;28;20027;-78
2021/05/22 08:25:22;;;;;;;6.50;2.00;;;10.90;91.00;;;;;;4981458;28;20088;-78
2021/05/22 08:27:50;;;;;;;6.13;1.50;;;10.90;90.60;;;;;;4999650;28;20037;-78
2021/05/22 08:30:16;;;;;;;6.65;2.20;;;10.90;91.00;;;;;;4999899;28;20026;-79
2021/05/22 08:32:41;;;;;;;6.43;1.73;;;10.90;91.20;;;;;;4982148;28;20054;-77
2021/05/22 08:35:08;;;;;;;8.05;2.53;;;10.80;91.20;;;;;;4981811;28;20108;-79
2021/05/22 08:37:34;;;;;;;9.40;2.42;;;10.80;91.20;;;;;;4982016;28;20090;-79
2021/05/22 08:40:00;;;;;;;9.40;2.45;;;10.80;91.70;;;;;;4981911;28;20394;-78
2021/05/22 08:42:28;;;;;;;3.45;1.75;;;10.80;91.50;;;;;;4982673;28;20027;-79
2021/05/22 08:45:02;;;;;;;5.05;1.95;;;10.90;91.50;;;;;;4981782;28;20028;-80
2021/05/22 08:47:29;;;;;;;4.50;1.50;;;10.90;91.50;;;;;;4982767;28;20454;-79
2021/05/22 08:49:55;;;;;;;4.25;1.80;;;10.90;90.90;;;;;;5002808;28;20018;-79
2021/05/22 08:52:22;;;;;;;3.70;1.52;;;10.90;91.40;;;;;;4990466;28;20369;-78
2021/05/22 08:54:49;;;;;;;5.63;1.90;;;10.90;91.30;;;;;;4986008;28;20027;-77
2021/05/22 08:57:15;;;;;;;4.65;1.80;;;11.00;91.30;;;;;;4997120;28;20023;-77
2021/05/22 08:59:44;;;;;;;6.25;2.22;;;11.00;91.40;;;;;;4980294;28;20041;-78
2021/05/22 09:02:19;;;;;;;4.05;2.30;;;11.00;91.60;;;;;;4980870;28;20036;-79
2021/05/22 09:05:17;;;;;;;6.75;2.13;;;10.90;91.70;;;;;;4980344;28;20018;-78
2021/05/22 09:07:47;;;;;;;6.28;2.33;;;11.00;91.60;;;;;;4997359;28;20038;-77
2021/05/22 09:10:17;;;;;;;4.32;2.10;;;11.00;91.80;;;;;;4979718;28;20034;-78
2021/05/22 09:12:46;;;;;;;7.32;2.53;;;11.00;91.30;;;;;;4996672;28;20386;-78
2021/05/22 09:15:15;;;;;;;6.60;2.28;;;11.00;91.90;;;;;;4980244;28;20110;-79
2021/05/22 09:18:06;;;;;;;6.28;2.50;;;11.00;91.20;;;;;;4980958;28;20116;-77
2021/05/22 09:20:43;;;;;;;4.43;2.60;;;11.00;91.10;;;;;;4961902;28;20519;-77
2021/05/22 09:23:14;;;;;;;7.57;2.88;;;11.10;91.20;;;;;;4969219;28;20114;-79
2021/05/22 09:26:02;;;;;;;7.60;3.42;;;11.10;91.20;;;;;;4976305;28;20061;-78
2021/05/22 09:28:41;;;;;;;4.85;2.63;;;11.00;91.60;;;;;;4978341;28;20049;-75
2021/05/22 09:31:11;;;;;;;6.95;3.20;;;11.10;91.50;;;;;;4979216;28;20022;-78
2021/05/22 09:33:37;;;;;;;6.07;2.73;;;11.10;91.30;;;;;;4979955;28;20022;-79
2021/05/22 09:36:08;;;;;;;7.53;3.55;;;11.20;91.10;;;;;;4981072;28;20274;-78
2021/05/22 09:38:38;;;;;;;6.30;3.22;;;11.20;91.10;;;;;;4980184;28;20122;-79
2021/05/22 09:41:27;;;;;;;5.95;2.78;;;11.30;91.10;;;;;;4960456;28;20065;-79
2021/05/22 09:44:16;;;;;;;7.75;3.53;;;11.30;90.70;;;;;;4987024;28;20027;-77
2021/05/22 09:46:44;;;;;;;7.57;3.20;;;11.30;91.10;;;;;;4987056;28;20022;-77
2021/05/22 09:49:11;;;;;;;6.10;3.22;;;11.30;91.00;;;;;;4981974;28;20031;-75
2021/05/22 09:51:58;;;;;;;5.55;3.17;;;11.30;91.20;;;;;;4991421;28;20023;-77
2021/05/22 09:54:58;;;;;;;6.38;3.63;;;11.30;91.00;;;;;;4979467;28;20022;-79
2021/05/22 09:57:32;;;;;;;6.35;3.60;;;11.40;91.00;;;;;;4977533;28;20067;-77
2021/05/22 10:00:12;;;;;;;7.10;3.17;;;11.30;91.50;;;;;;4978187;28;20060;-77
2021/05/22 10:02:58;;;;;;;7.57;3.50;;;11.30;90.90;;;;;;4978125;28;20057;-78
2021/05/22 10:05:26;;;;;;;7.30;3.60;;;11.40;91.40;;;;;;4977777;28;20052;-77
2021/05/22 10:07:54;;;;;;;7.88;4.22;;;11.30;91.40;;;;;;4978949;28;20042;-77
2021/05/22 10:10:21;;;;;;;9.00;3.92;;;11.30;91.50;;;;;;4994509;28;20018;-78
2021/05/22 10:12:47;;;;;;;7.20;3.60;;;11.40;91.50;;;;;;5005371;28;20098;-77
2021/05/22 10:15:18;;;;;;;6.25;3.30;;;11.40;91.40;;;;;;5014320;28;20042;-76
2021/05/22 10:17:44;;;;;;;8.07;4.20;;;11.40;90.60;;;;;;4985006;28;20033;-77
2021/05/22 10:20:11;;;;;;;7.45;4.93;;;11.50;91.10;;;;;;4977916;28;20030;-78
2021/05/22 10:22:39;;;;;;;9.68;4.80;;;11.50;91.20;;;;;;4980019;28;20062;-78
2021/05/22 10:25:06;;;;;;;8.25;5.47;;;11.50;91.10;;;;;;4978257;28;20498;-76
2021/05/22 10:27:34;;;;;;;8.05;4.82;;;11.50;91.50;;;;;;4977661;28;20022;-77
2021/05/22 10:29:59;;;;;;;6.22;3.85;;;11.50;91.50;;;;;;4977112;28;20026;-76
2021/05/22 10:32:31;;;;;;;7.32;4.32;;;11.60;91.40;;;;;;4984918;28;20387;-78
2021/05/22 10:34:56;;;;;;;5.18;3.08;;;11.50;91.60;;;;;;4989595;28;20029;-77
2021/05/22 10:37:52;;;;;;;7.18;4.05;;;11.50;91.40;;;;;;5000789;28;20022;-77
2021/05/22 10:40:44;;;;;;;8.23;4.70;;;11.50;91.60;;;;;;4961066;28;20044;-78
2021/05/22 10:43:10;;;;;;;6.28;3.67;;;11.50;91.40;;;;;;4991839;28;20026;-75
2021/05/22 10:45:38;;;;;;;13.55;5.53;;;11.60;91.10;;;;;;4995250;28;20022;-78
2021/05/22 10:48:06;;;;;;;7.70;4.03;;;11.60;91.50;;;;;;4976210;28;20022;-77
2021/05/22 10:50:46;;;;;;;8.38;5.00;;;11.60;90.90;;;;;;4977485;28;20033;-78
2021/05/22 10:53:23;;;;;;;7.07;4.47;;;11.60;91.40;;;;;;4995196;28;20379;-78
2021/05/22 10:56:09;;;;;;;8.65;6.05;;;11.70;91.40;;;;;;4978600;28;20105;-78
2021/05/22 10:58:36;;;;;;;6.80;5.05;;;11.60;91.50;;;;;;4990522;28;20031;-76
2021/05/22 11:01:29;;;;;;;6.40;3.85;;;11.60;91.20;;;;;;4985257;28;20023;-77
2021/05/22 11:04:18;;;;;;;6.82;4.30;;;11.70;91.00;;;;;;4976928;28;20045;-77
2021/05/22 11:07:13;;;;;;;7.53;4.93;;;11.60;91.70;;;;;;4993086;28;20042;-78
2021/05/22 11:09:39;;;;;;;6.55;3.95;;;11.70;91.10;;;;;;4973553;28;20034;-76
2021/05/22 11:12:34;;;;;;;5.63;3.53;;;11.70;90.90;;;;;;4994000;28;20260;-78
2021/05/22 11:15:00;;;;;;;10.85;5.65;;;11.90;91.20;;;;;;4983751;28;20034;-78
2021/05/22 11:17:26;;;;;;;12.00;5.85;;;11.90;91.50;;;;;;4976885;28;20023;-78
2021/05/22 11:22:26;;;;;;;9.60;5.88;;;12.00;91.60;;;;;;4994722;28;20037;-77
2021/05/22 11:25:00;;;;;;;6.80;4.75;;;12.00;91.70;;;;;;4976798;28;20406;-77
2021/05/22 11:30:41;;;;;;;8.20;5.70;;;12.00;91.20;;;;;;4981015;28;20386;-79
2021/05/22 11:33:09;;;;;;;7.55;5.97;;;12.00;91.30;;;;;;4977497;28;20036;-80
2021/05/22 11:35:36;;;;;;;6.60;4.72;;;12.00;91.70;;;;;;4994975;28;20037;-78
2021/05/22 11:38:11;;;;;;;7.68;4.93;;;11.90;91.20;;;;;;4980848;28;20033;-77
2021/05/22 11:40:40;;;;;;;9.30;5.18;;;11.90;90.70;;;;;;5009516;28;20034;-77
2021/05/22 11:43:14;;;;;;;6.82;4.05;;;11.90;91.60;;;;;;4997698;28;20033;-76
2021/05/22 11:45:45;;;;;;;6.18;3.50;;;11.90;92.20;;;;;;5014914;28;20096;-77
2021/05/22 11:48:28;;;;;;;5.47;2.85;;;11.90;91.70;;;;;;4996894;28;20021;-78
2021/05/22 11:51:05;;;;;;;5.95;2.70;;;11.90;91.50;;;;;;4992820;28;20022;-78
2021/05/22 11:53:31;;;;;;;6.25;3.95;;;11.90;91.80;;;;;;4995888;28;20025;-76
2021/05/22 11:56:24;;;;;;;4.72;2.92;;;12.00;91.90;;;;;;4996160;28;20060;-77
2021/05/22 11:58:52;;;;;;;3.60;2.53;;;12.10;91.80;;;;;;4991072;28;20046;-77
2021/05/22 12:01:22;;;;;;;6.03;3.60;;;12.30;91.20;;;;;;4995183;28;20080;-77
2021/05/22 12:03:58;;;;;;;6.07;3.53;;;12.40;91.00;;;;;;4995471;28;20049;-77
2021/05/22 12:06:29;;;;;;;8.57;4.18;;;12.60;91.00;;;;;;4995846;28;20049;-76
2021/05/22 12:09:00;;;;;;;4.60;2.75;;;12.60;90.60;;;;;;5016612;28;20014;-77
2021/05/22 12:11:29;;;;;;;6.78;2.97;;;12.60;89.20;;;;;;5020282;28;20064;-76
2021/05/22 12:14:03;;;;;;;5.93;3.20;;;12.50;90.30;;;;;;5017777;28;20122;-77
2021/05/22 12:16:29;;;;;;;7.75;3.53;;;12.40;90.50;;;;;;4982441;28;20033;-77
2021/05/22 12:18:55;;;;;;;6.43;3.42;;;12.50;90.70;;;;;;4979142;28;20027;-77
2021/05/22 12:21:31;;;;;;;7.15;4.55;;;12.40;90.00;;;;;;4995591;28;20467;-75
2021/05/22 12:24:24;;;;;;;8.55;4.20;;;12.40;90.50;;;;;;4976063;28;20027;-78
2021/05/22 12:26:55;;;;;;;8.38;4.65;;;12.50;90.20;;;;;;4989387;28;20125;-77
2021/05/22 12:29:23;;;;;;;8.02;4.53;;;12.60;90.40;;;;;;4975937;28;20027;-78
2021/05/22 12:31:50;;;;;;;9.93;5.57;;;12.70;89.70;;;;;;4977003;28;20058;-78
2021/05/22 12:34:23;;;;;;;7.40;3.95;;;12.80;89.90;;;;;;4988079;28;20095;-77
2021/05/22 12:36:54;;;;;;;7.28;4.63;;;12.70;88.90;;;;;;4970189;28;20459;-77
2021/05/22 12:39:19;;;;;;;;;;;12.80;90.00;;;;;;4960036;28;20045;-77
2021/05/22 12:41:45;;;;;;;12.80;5.80;;;12.80;89.50;;;;;;4956947;28;19906;-77
2021/05/22 12:44:22;;;;;;;10.25;5.25;;;12.70;89.10;;;;;;4958079;28;20026;-77
2021/05/22 12:46:56;;;;;;;9.00;4.38;;;12.70;88.40;;;;;;5013893;28;20025;-76
2021/05/22 12:49:21;;;;;;;7.15;4.97;;;12.70;88.30;;;;;;4974922;28;20050;-77
2021/05/22 12:52:13;;;;;;;9.77;5.05;;;12.60;88.90;;;;;;4998324;28;20054;-76
2021/05/22 12:54:38;;;;;;;9.55;5.80;;;12.60;88.40;;;;;;4994890;28;20518;-78
2021/05/22 12:57:21;;;;;;;8.88;5.88;;;12.50;88.90;;;;;;4977120;28;20034;-77
2021/05/22 12:59:53;;;;;;;11.52;5.53;;;12.50;89.60;;;;;;4983572;28;20035;-77